Time;durP1;ratioP1;P1;durP2;ratioP2;P2;SDS_P1;SDS_P2;PMS_P1;PMS_P2;Temp;Humidity;BMP_temperature;BMP_pressure;BME280_temperature;BME280_humidity;BME280_pressure;Samples;Min_cycle;Max_cycle;Signal;HPM_P1;HPM_P2
2022/03/29 00:01:11;;;;;;;25.40;18.55;;;;;;;15.41;43.57;99779.00;4913080;28;96866;-82
2022/03/29 00:03:37;;;;;;;28.10;18.45;;;;;;;15.35;43.39;99767.00;4896934;28;100906;-82
2022/03/29 00:06:03;;;;;;;25.25;18.00;;;;;;;15.30;43.70;99758.53;4912554;28;101806;-83
2022/03/29 00:08:29;;;;;;;27.70;17.05;;;;;;;15.25;43.59;99768.53;4894676;28;96714;-82
2022/03/29 00:10:54;;;;;;;26.10;17.42;;;;;;;15.12;43.90;99751.72;4920954;28;97002;-83
2022/03/29 00:13:20;;;;;;;25.50;18.02;;;;;;;15.22;43.96;99770.53;4906030;28;101433;-83
2022/03/29 00:15:45;;;;;;;28.40;16.50;;;;;;;15.19;43.93;99770.72;4921107;28;100603;-83
2022/03/29 00:18:11;;;;;;;27.35;19.30;;;;;;;15.10;44.00;99757.13;4894200;28;96708;-82
2022/03/29 00:20:37;;;;;;;29.88;18.95;;;;;;;15.10;44.02;99765.03;4924197;28;97389;-83
2022/03/29 00:23:03;;;;;;;29.00;16.52;;;;;;;14.99;44.41;99766.66;4909441;28;97918;-82
2022/03/29 00:25:29;;;;;;;25.23;17.25;;;;;;;14.97;44.54;99761.44;4924077;28;101500;-82
2022/03/29 00:27:54;;;;;;;27.33;17.63;;;;;;;14.96;44.62;99750.97;4908644;28;97394;-82
2022/03/29 00:30:20;;;;;;;26.48;17.80;;;;;;;14.82;44.52;99736.81;4912427;28;96988;-83
2022/03/29 00:32:47;;;;;;;23.80;16.75;;;;;;;14.82;44.71;99735.97;4896646;28;101486;-82
2022/03/29 00:35:12;;;;;;;25.55;17.52;;;;;;;14.80;44.99;99746.59;4928913;28;98385;-82
2022/03/29 00:37:39;;;;;;;24.90;18.00;;;;;;;14.78;44.89;99748.50;4893756;28;97583;-82
2022/03/29 00:40:06;;;;;;;24.10;17.20;;;;;;;14.77;45.28;99751.22;4908089;28;97549;-82
2022/03/29 00:42:32;;;;;;;24.10;16.92;;;;;;;14.74;45.20;99756.69;4913470;28;97950;-82
2022/03/29 00:44:58;;;;;;;22.20;16.48;;;;;;;14.60;45.48;99739.03;4917814;28;100980;-84
2022/03/29 00:47:24;;;;;;;24.80;17.50;;;;;;;14.60;45.34;99745.19;4916467;28;96885;-82
2022/03/29 00:49:49;;;;;;;23.30;17.40;;;;;;;14.69;45.69;99754.34;4918142;28;96909;-82
2022/03/29 00:52:15;;;;;;;22.25;15.55;;;;;;;14.66;45.57;99750.09;4916411;28;101284;-82
2022/03/29 00:54:41;;;;;;;24.15;17.45;;;;;;;14.67;45.23;99757.06;4935173;28;101458;-82
2022/03/29 00:57:07;;;;;;;21.10;17.15;;;;;;;14.57;45.64;99742.69;4932106;28;97103;-82
2022/03/29 00:59:32;;;;;;;23.42;15.88;;;;;;;14.54;45.95;99755.25;4913868;28;96857;-82
2022/03/29 01:01:58;;;;;;;25.05;16.98;;;;;;;14.58;45.99;99759.44;4916265;28;101108;-83
2022/03/29 01:04:25;;;;;;;27.30;16.55;;;;;;;14.42;45.82;99730.38;4916345;28;101402;-82
2022/03/29 01:06:53;;;;;;;23.50;17.63;;;;;;;14.53;45.79;99756.19;4915462;28;97292;-82
2022/03/29 01:09:19;;;;;;;22.42;16.02;;;;;;;14.47;46.15;99741.53;4916404;28;97158;-82
2022/03/29 01:11:44;;;;;;;22.92;16.63;;;;;;;14.58;46.03;99757.63;4893535;28;101597;-82
2022/03/29 01:14:10;;;;;;;20.65;16.40;;;;;;;14.56;45.87;99756.84;4935701;28;98340;-82
2022/03/29 01:19:21;;;;;;;21.75;16.42;;;;;;;14.51;46.29;99766.81;4919347;28;97233;-83
2022/03/29 01:21:57;;;;;;;23.10;16.23;;;;;;;14.49;46.62;99761.63;4915349;28;101464;-82
2022/03/29 01:24:25;;;;;;;22.50;16.42;;;;;;;14.38;46.51;99756.13;4934655;28;101154;-81
2022/03/29 01:26:52;;;;;;;20.02;14.93;;;;;;;14.48;46.59;99772.28;4918208;28;97549;-82
2022/03/29 01:29:19;;;;;;;26.90;17.58;;;;;;;14.45;46.79;99783.00;4903323;28;97392;-82
2022/03/29 01:31:45;;;;;;;24.35;15.32;;;;;;;14.52;46.51;99776.47;4918345;28;101755;-81
2022/03/29 01:34:11;;;;;;;23.83;16.80;;;;;;;14.44;47.00;99773.41;4919403;28;98900;-82
2022/03/29 01:36:36;;;;;;;22.05;16.95;;;;;;;14.35;47.19;99745.75;4919199;28;97062;-82
2022/03/29 01:39:03;;;;;;;26.33;16.83;;;;;;;14.43;46.72;99750.59;4916496;28;96997;-82
2022/03/29 01:41:30;;;;;;;21.15;16.20;;;;;;;14.47;47.07;99758.22;4904782;28;101697;-82
2022/03/29 01:43:56;;;;;;;26.05;17.20;;;;;;;14.47;46.93;99755.59;4918719;28;100956;-82
2022/03/29 01:46:22;;;;;;;22.23;16.35;;;;;;;14.48;46.64;99745.88;4918283;28;97058;-82
2022/03/29 01:48:48;;;;;;;22.42;16.08;;;;;;;14.44;46.79;99736.44;4918889;28;97074;-83
2022/03/29 01:51:14;;;;;;;22.55;16.08;;;;;;;14.41;47.21;99723.41;4901827;28;101136;-82
2022/03/29 01:53:40;;;;;;;20.65;14.38;;;;;;;14.42;47.05;99730.38;4918670;28;101239;-82
2022/03/29 01:56:05;;;;;;;25.17;15.65;;;;;;;14.36;47.00;99725.47;4914179;28;97244;-82
2022/03/29 01:58:31;;;;;;;18.67;14.23;;;;;;;14.23;46.87;99722.72;4918444;28;97099;-82
2022/03/29 02:00:57;;;;;;;19.13;13.73;;;;;;;14.00;46.94;99687.09;4917483;28;101347;-81
2022/03/29 02:03:22;;;;;;;21.85;14.77;;;;;;;14.29;46.63;99724.16;4903743;28;101101;-82
2022/03/29 02:05:49;;;;;;;21.77;15.57;;;;;;;14.06;46.91;99680.63;4924081;28;97126;-82
2022/03/29 02:08:14;;;;;;;20.50;13.88;;;;;;;14.28;46.74;99728.56;4903213;28;96882;-82
2022/03/29 02:10:40;;;;;;;20.23;14.07;;;;;;;14.30;46.91;99716.13;4916434;28;100143;-82
2022/03/29 02:13:09;;;;;;;20.75;14.10;;;;;;;14.29;47.23;99722.34;4901921;28;100121;-82
2022/03/29 02:15:38;;;;;;;23.77;13.60;;;;;;;14.06;46.71;99681.47;4915345;28;97088;-81
2022/03/29 02:18:05;;;;;;;20.25;14.68;;;;;;;14.22;46.68;99708.66;4901097;28;97240;-83
2022/03/29 02:20:30;;;;;;;18.42;14.07;;;;;;;14.17;46.90;99699.31;4918299;28;97980;-83
2022/03/29 02:23:03;;;;;;;20.50;13.77;;;;;;;14.20;47.08;99705.25;4914757;28;101040;-82
2022/03/29 02:25:30;;;;;;;20.23;12.93;;;;;;;14.15;47.01;99706.47;4929629;28;97030;-83
2022/03/29 02:27:55;;;;;;;19.02;13.15;;;;;;;13.99;46.81;99677.47;4916711;28;97229;-84
2022/03/29 02:30:21;;;;;;;17.83;12.48;;;;;;;14.11;47.40;99702.28;4916994;28;100980;-83
2022/03/29 02:32:46;;;;;;;19.70;11.68;;;;;;;14.04;47.09;99694.72;4915068;28;101165;-83
2022/03/29 02:35:13;;;;;;;20.67;11.85;;;;;;;13.81;47.19;99648.56;4915223;28;97587;-82
2022/03/29 02:37:39;;;;;;;15.35;10.18;;;;;;;14.01;46.85;99688.78;4902081;28;96827;-83
2022/03/29 02:40:06;;;;;;;17.70;11.55;;;;;;;14.02;46.93;99693.13;4932465;28;98054;-83
2022/03/29 02:42:32;;;;;;;20.30;10.98;;;;;;;14.10;46.92;99698.81;4902289;28;101460;-82
2022/03/29 02:44:58;;;;;;;19.30;11.30;;;;;;;14.08;46.94;99700.72;4915960;28;97135;-82
2022/03/29 02:47:24;;;;;;;16.70;11.50;;;;;;;14.06;46.98;99697.28;4911900;28;97207;-82
2022/03/29 02:49:49;;;;;;;21.25;11.50;;;;;;;14.01;46.97;99687.00;4898627;28;101720;-82
2022/03/29 02:52:15;;;;;;;17.30;10.60;;;;;;;13.89;47.10;99673.69;4927480;28;98335;-82
2022/03/29 02:54:41;;;;;;;16.92;11.27;;;;;;;14.08;47.10;99697.19;4917631;28;97207;-82
2022/03/29 02:57:07;;;;;;;17.50;10.07;;;;;;;13.97;46.67;99674.94;4917894;28;97413;-82
2022/03/29 02:59:33;;;;;;;17.73;10.68;;;;;;;14.00;46.41;99685.31;4934851;28;97953;-82
2022/03/29 03:01:58;;;;;;;15.75;10.48;;;;;;;14.07;46.99;99696.34;4914505;28;101037;-81
2022/03/29 03:04:24;;;;;;;20.83;11.38;;;;;;;13.80;46.91;99646.88;4898351;28;97319;-82
2022/03/29 03:06:49;;;;;;;15.63;10.20;;;;;;;13.89;46.60;99678.97;4914571;28;98617;-83
2022/03/29 03:09:15;;;;;;;15.75;10.52;;;;;;;13.82;46.95;99670.56;4917208;28;98501;-82
2022/03/29 03:11:40;;;;;;;17.98;10.07;;;;;;;13.88;47.20;99680.75;4917233;28;101483;-82
2022/03/29 03:14:06;;;;;;;13.40;9.57;;;;;;;13.78;46.97;99675.13;4917031;28;96988;-81
2022/03/29 03:16:32;;;;;;;15.18;10.77;;;;;;;13.80;47.03;99664.50;4933988;28;97194;-82
2022/03/29 03:18:57;;;;;;;17.23;9.63;;;;;;;13.73;46.37;99653.47;4913257;28;101337;-82
2022/03/29 03:21:23;;;;;;;16.55;10.18;;;;;;;13.70;47.33;99652.78;4914637;28;101878;-82
2022/03/29 03:23:49;;;;;;;15.90;10.82;;;;;;;13.79;46.71;99663.66;4898792;28;98033;-82
2022/03/29 03:26:15;;;;;;;17.15;11.13;;;;;;;13.52;46.82;99621.25;4900185;28;97155;-82
2022/03/29 03:28:40;;;;;;;19.50;11.02;;;;;;;13.64;47.27;99640.78;4916692;28;101104;-82
2022/03/29 03:31:06;;;;;;;24.27;11.88;;;;;;;13.68;47.13;99660.78;4916489;28;100919;-82
2022/03/29 03:33:31;;;;;;;18.40;10.77;;;;;;;13.67;47.42;99659.09;4933322;28;96765;-83
2022/03/29 03:35:57;;;;;;;17.38;11.45;;;;;;;13.55;47.33;99667.69;4916739;28;97331;-82
2022/03/29 03:38:22;;;;;;;16.60;11.63;;;;;;;13.36;47.71;99646.78;4917413;28;101196;-83
2022/03/29 03:40:48;;;;;;;20.38;11.75;;;;;;;13.41;47.22;99664.97;4917316;28;101326;-82
2022/03/29 03:43:13;;;;;;;26.00;12.57;;;;;;;13.43;47.39;99671.03;4914065;28;96947;-82
2022/03/29 03:45:39;;;;;;;25.48;11.57;;;;;;;13.21;47.76;99651.09;4915991;28;96964;-81
2022/03/29 03:48:05;;;;;;;17.52;10.70;;;;;;;13.20;47.95;99648.53;4916766;28;97943;-83
2022/03/29 03:50:32;;;;;;;22.05;11.80;;;;;;;13.27;47.44;99677.16;4933226;28;101219;-82
2022/03/29 03:52:57;;;;;;;19.80;10.77;;;;;;;13.29;47.85;99674.41;4916384;28;97481;-83
2022/03/29 03:55:23;;;;;;;19.05;11.10;;;;;;;13.27;48.09;99682.44;4917002;28;96846;-82
2022/03/29 03:57:49;;;;;;;18.10;10.93;;;;;;;13.24;47.21;99695.75;4951186;28;97919;-82
2022/03/29 04:00:16;;;;;;;18.90;10.95;;;;;;;13.07;47.48;99666.81;4894714;28;101085;-82
2022/03/29 04:02:42;;;;;;;20.25;10.43;;;;;;;13.12;48.59;99692.00;4932786;28;97084;-82
2022/03/29 04:05:12;;;;;;;15.95;10.48;;;;;;;12.84;48.09;99645.22;4915896;28;96867;-82
2022/03/29 04:07:38;;;;;;;15.05;10.25;;;;;;;13.12;48.33;99697.25;4917313;28;101790;-82
2022/03/29 04:10:04;;;;;;;19.50;10.75;;;;;;;13.01;47.93;99672.44;4916719;28;98241;-82
2022/03/29 04:12:30;;;;;;;17.13;10.93;;;;;;;12.95;48.10;99673.63;4900932;28;97304;-83
2022/03/29 04:14:55;;;;;;;17.17;11.60;;;;;;;12.99;47.96;99690.09;4916252;28;97174;-82
2022/03/29 04:17:21;;;;;;;18.25;12.48;;;;;;;12.88;48.25;99694.13;4915376;28;101319;-83
2022/03/29 04:19:46;;;;;;;16.48;10.60;;;;;;;12.86;48.48;99693.41;4912960;28;97813;-82
2022/03/29 04:22:12;;;;;;;15.55;10.43;;;;;;;12.79;48.83;99699.91;4912776;28;96751;-81
2022/03/29 04:24:38;;;;;;;20.98;10.80;;;;;;;12.58;48.40;99649.22;4900203;28;96878;-82
2022/03/29 04:27:05;;;;;;;17.55;10.57;;;;;;;12.68;48.25;99673.28;4916210;28;101374;-82
2022/03/29 04:29:30;;;;;;;15.50;10.50;;;;;;;12.78;48.70;99690.31;4916891;28;98071;-82
2022/03/29 04:31:56;;;;;;;17.35;9.65;;;;;;;12.68;48.80;99691.72;4916365;28;96851;-84
2022/03/29 04:34:21;;;;;;;18.50;9.75;;;;;;;12.68;48.72;99679.44;4900835;28;96919;-82
2022/03/29 04:36:47;;;;;;;16.00;10.50;;;;;;;12.46;48.81;99657.78;4911887;28;97428;-82
2022/03/29 04:39:12;;;;;;;24.85;9.30;;;;;;;12.59;48.54;99687.78;4915271;28;98515;-81
2022/03/29 04:41:39;;;;;;;19.45;10.30;;;;;;;12.55;48.85;99683.63;4915734;28;97152;-82
2022/03/29 04:44:05;;;;;;;23.83;9.98;;;;;;;12.50;48.18;99680.38;4916251;28;97589;-83
2022/03/29 04:46:31;;;;;;;16.17;8.98;;;;;;;12.63;48.61;99688.50;4909051;28;101481;-82
2022/03/29 04:48:56;;;;;;;18.40;8.52;;;;;;;12.69;48.33;99696.91;4870971;28;101474;-83
2022/03/29 04:51:22;;;;;;;16.05;8.77;;;;;;;12.56;48.49;99676.56;4881156;28;96812;-82
2022/03/29 04:53:48;;;;;;;18.95;8.75;;;;;;;12.65;48.44;99702.41;4893689;28;97746;-81
2022/03/29 04:56:14;;;;;;;13.93;8.88;;;;;;;12.61;48.50;99698.25;4879326;28;100063;-82
2022/03/29 04:58:39;;;;;;;17.83;9.40;;;;;;;12.57;48.41;99688.81;4881304;28;101172;-82
2022/03/29 05:01:05;;;;;;;14.65;8.55;;;;;;;12.39;48.35;99657.25;4896198;28;97211;-83
2022/03/29 05:03:32;;;;;;;16.08;9.07;;;;;;;12.44;48.71;99686.81;4896933;28;97187;-82
2022/03/29 05:05:58;;;;;;;25.83;10.00;;;;;;;12.41;48.51;99676.44;4895816;28;99569;-82
2022/03/29 05:08:23;;;;;;;15.25;9.20;;;;;;;12.40;48.00;99658.09;4894178;28;101308;-82
2022/03/29 05:10:49;;;;;;;17.30;10.13;;;;;;;12.67;48.60;99701.41;4878753;28;97239;-82
2022/03/29 05:13:16;;;;;;;14.57;9.15;;;;;;;12.52;48.97;99704.00;4896222;28;97247;-82
2022/03/29 05:15:41;;;;;;;16.55;10.10;;;;;;;12.49;49.08;99697.09;4896007;28;99960;-82
2022/03/29 05:18:07;;;;;;;17.58;10.40;;;;;;;12.55;49.04;99695.94;4907343;28;101697;-82
2022/03/29 05:20:32;;;;;;;15.10;10.30;;;;;;;12.59;48.92;99703.56;4912962;28;97089;-82
2022/03/29 05:23:00;;;;;;;19.48;9.93;;;;;;;12.64;49.01;99703.34;4896898;28;97097;-83
2022/03/29 05:25:26;;;;;;;15.80;9.90;;;;;;;12.76;49.03;99699.22;4893661;28;101594;-82
2022/03/29 05:27:52;;;;;;;18.30;9.95;;;;;;;12.81;48.68;99697.22;4877605;28;100765;-82
2022/03/29 05:30:19;;;;;;;14.93;9.48;;;;;;;12.90;48.54;99701.97;4920116;28;97489;-83
2022/03/29 05:32:44;;;;;;;15.30;9.77;;;;;;;12.89;48.43;99692.38;4900203;28;97172;-82
2022/03/29 05:35:11;;;;;;;13.30;9.35;;;;;;;12.87;48.48;99691.59;4892709;28;101497;-81
2022/03/29 05:37:38;;;;;;;15.85;9.40;;;;;;;12.96;48.76;99701.66;4884083;28;99667;-82
2022/03/29 05:40:08;;;;;;;20.30;10.63;;;;;;;12.98;48.57;99706.84;4899399;28;97069;-83
2022/03/29 05:42:41;;;;;;;17.83;10.10;;;;;;;12.99;48.33;99695.38;4878259;28;96877;-83
2022/03/29 05:45:08;;;;;;;19.63;10.00;;;;;;;13.09;48.24;99696.59;4900454;28;98459;-83
2022/03/29 05:50:18;;;;;;;15.02;10.20;;;;;;;13.24;48.24;99713.34;4914716;28;97270;-83
2022/03/29 05:52:44;;;;;;;22.95;11.38;;;;;;;13.18;48.57;99726.81;4919521;28;96939;-83
2022/03/29 05:55:09;;;;;;;22.63;11.07;;;;;;;13.06;48.37;99691.44;4897608;28;101903;-83
2022/03/29 05:57:35;;;;;;;17.83;11.05;;;;;;;13.22;48.31;99716.06;4898824;28;100905;-83
2022/03/29 06:00:01;;;;;;;20.90;10.70;;;;;;;13.21;48.17;99714.34;4894245;28;97762;-83
2022/03/29 06:02:27;;;;;;;21.35;11.27;;;;;;;13.08;48.45;99719.41;4922957;28;96933;-83
2022/03/29 06:04:53;;;;;;;18.70;11.27;;;;;;;13.20;48.48;99717.91;4942402;28;98532;-83
2022/03/29 06:07:19;;;;;;;14.02;9.55;;;;;;;13.18;48.27;99711.88;4914998;28;101497;-82
2022/03/29 06:09:45;;;;;;;14.35;10.02;;;;;;;13.23;48.24;99725.66;4908291;28;97271;-82
2022/03/29 06:12:10;;;;;;;15.10;9.88;;;;;;;13.10;48.16;99714.09;4911614;28;97223;-83
2022/03/29 06:14:36;;;;;;;18.65;9.40;;;;;;;13.18;48.01;99730.34;4895682;28;101318;-83
2022/03/29 06:17:01;;;;;;;15.38;9.90;;;;;;;13.13;48.27;99720.03;4913759;28;101675;-83
2022/03/29 06:19:27;;;;;;;16.05;8.57;;;;;;;13.17;48.26;99719.88;4931962;28;96768;-83
2022/03/29 06:21:53;;;;;;;14.00;9.05;;;;;;;13.11;48.13;99721.88;4917297;28;97227;-82
2022/03/29 06:24:19;;;;;;;19.02;9.55;;;;;;;13.11;48.44;99718.41;4909325;28;101367;-83
2022/03/29 06:26:44;;;;;;;13.38;8.73;;;;;;;13.05;48.27;99729.28;4909991;28;101118;-83
2022/03/29 06:29:11;;;;;;;12.35;8.35;;;;;;;13.04;48.14;99733.72;4897037;28;97365;-83
2022/03/29 06:31:37;;;;;;;19.90;9.25;;;;;;;13.04;48.15;99728.44;4929481;28;97138;-83
2022/03/29 06:34:03;;;;;;;11.40;8.73;;;;;;;13.09;48.24;99736.09;4914941;28;100930;-82
2022/03/29 06:36:28;;;;;;;12.95;8.55;;;;;;;13.11;48.39;99740.34;4889138;28;101268;-81
2022/03/29 06:38:55;;;;;;;12.10;8.32;;;;;;;13.11;48.22;99734.22;4916759;28;96997;-82
2022/03/29 06:41:21;;;;;;;16.20;9.73;;;;;;;12.93;48.23;99719.41;4915551;28;97287;-81
2022/03/29 06:43:47;;;;;;;11.75;8.30;;;;;;;12.96;48.42;99732.41;4931227;28;98042;-82
2022/03/29 06:46:13;;;;;;;14.95;9.40;;;;;;;13.09;48.41;99738.75;4914492;28;99850;-86
2022/03/29 06:48:41;;;;;;;15.40;8.77;;;;;;;13.06;48.60;99725.69;4914512;28;96958;-82
2022/03/29 06:51:18;;;;;;;17.25;9.18;;;;;;;13.13;48.28;99732.38;4908726;28;97396;-82
2022/03/29 06:53:44;;;;;;;16.30;9.77;;;;;;;13.12;48.33;99728.88;4917018;28;102059;-84
2022/03/29 06:56:09;;;;;;;13.45;8.38;;;;;;;13.11;48.21;99723.69;4914378;28;100207;-84
2022/03/29 06:58:36;;;;;;;15.13;9.63;;;;;;;13.19;48.43;99734.66;4946119;28;97280;-82
2022/03/29 07:01:02;;;;;;;16.67;9.95;;;;;;;13.10;47.85;99711.44;4921071;28;97262;-85
2022/03/29 07:03:29;;;;;;;17.88;9.40;;;;;;;13.20;48.54;99733.72;4917974;28;101373;-82
2022/03/29 07:05:56;;;;;;;16.92;9.90;;;;;;;13.04;48.64;99715.25;4901760;28;100894;-83
2022/03/29 07:08:22;;;;;;;20.80;10.65;;;;;;;13.18;48.68;99740.00;4913575;28;97238;-84
2022/03/29 07:13:32;;;;;;;18.60;9.60;;;;;;;13.28;49.01;99734.19;4918990;28;101343;-83
2022/03/29 07:15:58;;;;;;;14.57;10.75;;;;;;;13.22;48.82;99731.03;4916826;28;98272;-82
2022/03/29 07:18:24;;;;;;;16.25;10.50;;;;;;;13.18;48.80;99713.66;4923719;28;97179;-83
2022/03/29 07:20:49;;;;;;;17.67;11.80;;;;;;;13.24;49.00;99727.38;4900468;28;96958;-83
2022/03/29 07:23:15;;;;;;;21.00;12.40;;;;;;;13.27;48.91;99732.50;4916354;28;101365;-85
2022/03/29 07:25:40;;;;;;;17.90;12.00;;;;;;;13.22;49.28;99739.75;4925375;28;101349;-83
2022/03/29 07:28:11;;;;;;;17.30;11.95;;;;;;;13.31;49.49;99739.28;4917212;28;96855;-85
2022/03/29 07:30:41;;;;;;;17.55;11.23;;;;;;;13.27;49.27;99739.56;4915484;28;97020;-88
2022/03/29 07:33:07;;;;;;;19.23;13.10;;;;;;;13.11;49.04;99716.63;4941929;28;101522;-87
2022/03/29 07:35:33;;;;;;;24.60;15.13;;;;;;;13.20;49.40;99731.09;4900584;28;101168;-91
2022/03/29 07:37:59;;;;;;;21.85;15.73;;;;;;;13.19;49.18;99715.38;4925370;28;96743;-85
2022/03/29 07:40:27;;;;;;;29.05;19.48;;;;;;;13.16;49.31;99719.03;4905500;28;96936;-86
2022/03/29 07:42:54;;;;;;;31.80;21.85;;;;;;;13.25;48.77;99734.34;4913769;28;98010;-90
2022/03/29 07:45:20;;;;;;;33.88;22.10;;;;;;;13.29;48.43;99746.47;4908195;28;98450;-91
2022/03/29 07:47:49;;;;;;;30.13;22.63;;;;;;;13.32;48.71;99721.69;4909974;28;96888;-77
2022/03/29 07:50:15;;;;;;;30.33;22.02;;;;;;;13.41;48.26;99718.56;4893017;28;96811;-86
2022/03/29 07:52:42;;;;;;;30.08;22.45;;;;;;;13.52;47.92;99710.03;4895717;28;101625;-86
2022/03/29 07:55:10;;;;;;;34.30;22.98;;;;;;;13.75;47.33;99701.69;4897435;28;99924;-88
2022/03/29 07:57:36;;;;;;;29.60;20.88;;;;;;;13.99;47.85;99712.66;4898698;28;97333;-86
2022/03/29 08:00:31;;;;;;;28.35;21.27;;;;;;;14.31;46.61;99717.84;4873649;28;97626;-87
2022/03/29 08:02:47;;;;;;;33.33;21.05;;;;;;;14.28;46.27;99702.16;4926370;28;98982;-83
2022/03/29 08:05:13;;;;;;;27.10;20.15;;;;;;;14.31;46.03;99704.63;4893202;28;101430;-81
2022/03/29 08:07:41;;;;;;;26.85;20.77;;;;;;;14.35;46.12;99711.44;4913165;28;97189;-85
2022/03/29 08:10:07;;;;;;;25.33;19.60;;;;;;;14.26;46.54;99702.25;4913851;28;96749;-86
2022/03/29 08:12:34;;;;;;;25.83;20.05;;;;;;;14.25;46.29;99695.28;4896964;28;101421;-85
2022/03/29 08:15:00;;;;;;;29.25;19.88;;;;;;;14.40;46.37;99716.44;4894205;28;101252;-85
2022/03/29 08:17:26;;;;;;;32.95;18.98;;;;;;;14.17;45.89;99679.06;4905667;28;97926;-87
2022/03/29 08:19:52;;;;;;;24.77;18.10;;;;;;;14.23;45.61;99697.16;4879036;28;97320;-88
2022/03/29 08:22:18;;;;;;;25.50;19.48;;;;;;;14.31;46.17;99690.56;4895948;28;101213;-86
2022/03/29 08:24:44;;;;;;;27.15;19.75;;;;;;;14.42;45.66;99702.19;4893911;28;97896;-86
2022/03/29 08:27:10;;;;;;;21.27;18.27;;;;;;;14.40;45.37;99711.16;4907825;28;98100;-83
2022/03/29 08:29:37;;;;;;;22.27;18.05;;;;;;;14.37;45.51;99703.41;4904845;28;97163;-85
2022/03/29 08:32:04;;;;;;;23.67;18.02;;;;;;;14.43;45.28;99709.19;4896774;28;98931;-88
2022/03/29 08:34:29;;;;;;;30.35;19.23;;;;;;;14.39;45.05;99696.25;4896650;28;100072;-92
2022/03/29 08:36:55;;;;;;;25.30;17.48;;;;;;;14.41;45.02;99707.56;4876003;28;97272;-88
2022/03/29 08:39:21;;;;;;;28.90;19.40;;;;;;;14.29;44.89;99697.75;4896598;28;97358;-92
2022/03/29 08:41:53;;;;;;;24.52;17.77;;;;;;;14.33;44.98;99705.38;4929737;28;97378;-90
2022/03/29 08:44:19;;;;;;;24.15;19.10;;;;;;;14.30;44.83;99702.91;4892863;28;98285;-91
2022/03/29 08:46:46;;;;;;;23.33;18.88;;;;;;;14.12;45.45;99681.09;4915476;28;97483;-95
2022/03/29 08:49:13;;;;;;;27.17;18.33;;;;;;;14.25;45.27;99702.34;4915512;28;97241;-90
2022/03/29 08:51:39;;;;;;;27.38;20.13;;;;;;;14.30;45.11;99704.72;4915503;28;100243;-89
2022/03/29 08:54:06;;;;;;;23.30;18.42;;;;;;;14.29;45.56;99698.59;4911044;28;101350;-85
2022/03/29 08:56:32;;;;;;;24.70;19.30;;;;;;;14.31;45.72;99706.41;4914528;28;97410;-88
2022/03/29 08:58:58;;;;;;;27.00;19.95;;;;;;;14.19;45.74;99673.66;4915537;28;96930;-85
2022/03/29 09:01:24;;;;;;;23.95;19.52;;;;;;;14.44;45.88;99704.75;4897079;28;101697;-90
2022/03/29 09:04:11;;;;;;;29.00;20.30;;;;;;;14.34;45.40;99679.81;4900309;28;100718;-92
2022/03/29 09:06:58;;;;;;;27.23;19.85;;;;;;;14.44;45.36;99697.66;4922547;28;96938;-89
2022/03/29 09:09:35;;;;;;;29.23;21.38;;;;;;;14.37;45.28;99669.06;4905858;28;97615;-83
2022/03/29 09:12:13;;;;;;;25.02;18.73;;;;;;;14.41;45.50;99691.72;4915062;28;101528;-83
2022/03/29 09:14:57;;;;;;;33.80;21.05;;;;;;;14.36;45.94;99684.06;4927609;28;98320;-83
2022/03/29 09:17:31;;;;;;;27.33;19.23;;;;;;;14.53;45.27;99708.66;4933276;28;97425;-84
2022/03/29 09:19:59;;;;;;;27.63;20.85;;;;;;;14.47;45.12;99680.78;4946737;28;96965;-86
2022/03/29 09:22:41;;;;;;;28.27;19.90;;;;;;;14.56;44.91;99696.13;4921240;28;100558;-86
2022/03/29 09:25:08;;;;;;;24.92;20.27;;;;;;;14.54;45.02;99689.22;4917411;28;98566;-84
2022/03/29 09:27:54;;;;;;;25.98;19.17;;;;;;;14.53;45.32;99688.38;4921029;28;97019;-84
2022/03/29 09:30:20;;;;;;;30.27;18.27;;;;;;;14.50;44.80;99677.97;4919326;28;97256;-85
2022/03/29 09:32:54;;;;;;;23.77;18.20;;;;;;;14.49;44.66;99668.34;4911514;28;97990;-87
2022/03/29 09:35:20;;;;;;;27.73;20.77;;;;;;;14.53;44.82;99676.97;4916600;28;101455;-86
2022/03/29 09:37:46;;;;;;;27.27;20.02;;;;;;;14.57;44.36;99681.97;4930878;28;96809;-86
2022/03/29 09:40:13;;;;;;;27.83;19.55;;;;;;;14.60;44.67;99683.56;4903299;28;97506;-87
2022/03/29 09:43:08;;;;;;;23.55;19.05;;;;;;;14.58;44.80;99673.13;4912737;28;100273;-86
2022/03/29 09:45:48;;;;;;;24.70;19.55;;;;;;;14.81;44.71;99676.16;4919121;28;100236;-85
2022/03/29 09:48:24;;;;;;;27.98;20.38;;;;;;;14.97;44.48;99682.16;4933443;28;97448;-86
2022/03/29 09:51:09;;;;;;;26.85;19.15;;;;;;;15.02;43.92;99679.25;4913100;28;97251;-86
2022/03/29 09:53:51;;;;;;;26.00;19.00;;;;;;;15.03;43.60;99670.34;4945948;28;100091;-83
2022/03/29 09:56:24;;;;;;;25.83;19.35;;;;;;;15.18;43.14;99661.44;4913019;28;101380;-86
2022/03/29 09:59:03;;;;;;;31.30;20.40;;;;;;;15.28;42.97;99653.81;4925172;28;96834;-83
2022/03/29 10:01:28;;;;;;;27.20;20.13;;;;;;;15.52;42.87;99654.00;4919172;28;96722;-83
2022/03/29 10:03:55;;;;;;;26.42;19.80;;;;;;;15.57;43.13;99644.00;4925627;28;99894;-83
2022/03/29 10:06:24;;;;;;;31.48;19.95;;;;;;;15.49;42.42;99630.41;4916041;28;101281;-84
2022/03/29 10:11:37;;;;;;;25.80;20.48;;;;;;;15.76;42.35;99649.78;4932389;28;97527;-86
2022/03/29 10:14:03;;;;;;;26.42;19.25;;;;;;;15.61;42.04;99637.53;4918631;28;97952;-84
2022/03/29 10:16:30;;;;;;;25.15;19.92;;;;;;;15.61;41.99;99659.53;4915854;28;101682;-84
2022/03/29 10:18:56;;;;;;;26.98;20.67;;;;;;;15.55;42.27;99657.28;4925800;28;97176;-83
2022/03/29 10:21:22;;;;;;;25.13;20.77;;;;;;;15.55;42.30;99652.00;4907915;28;97372;-84
2022/03/29 10:23:51;;;;;;;26.67;21.83;;;;;;;15.56;42.06;99648.44;4902319;28;100686;-84
2022/03/29 10:26:21;;;;;;;28.77;22.33;;;;;;;15.55;42.23;99643.22;4915903;28;101198;-83
2022/03/29 10:28:48;;;;;;;28.55;22.30;;;;;;;15.69;42.50;99639.72;4935013;28;97311;-87
2022/03/29 10:31:33;;;;;;;34.63;23.05;;;;;;;15.68;42.19;99649.47;4933291;28;97166;-84
2022/03/29 10:34:18;;;;;;;27.05;21.25;;;;;;;15.61;42.16;99651.59;4929095;28;101727;-84
2022/03/29 10:37:04;;;;;;;32.65;22.85;;;;;;;15.65;42.32;99648.75;4917461;28;101471;-84
2022/03/29 10:39:44;;;;;;;29.65;20.92;;;;;;;15.66;41.74;99637.25;4910053;28;97289;-84
2022/03/29 10:42:32;;;;;;;27.63;19.17;;;;;;;15.66;41.41;99642.53;4921835;28;96825;-83
2022/03/29 10:45:05;;;;;;;25.30;18.65;;;;;;;15.67;41.60;99628.34;4949853;28;100562;-86
2022/03/29 10:47:32;;;;;;;23.65;17.60;;;;;;;15.77;41.87;99637.41;4924051;28;97180;-85
2022/03/29 10:49:58;;;;;;;27.70;17.70;;;;;;;15.77;41.60;99638.25;4918461;28;97218;-85
2022/03/29 10:52:24;;;;;;;23.80;18.08;;;;;;;15.81;41.52;99630.97;4903448;28;97851;-85
2022/03/29 10:54:50;;;;;;;21.08;17.92;;;;;;;15.74;41.08;99635.81;4949432;28;98635;-88
2022/03/29 10:57:24;;;;;;;22.90;15.80;;;;;;;15.34;41.21;99559.06;4906715;28;100383;-88
2022/03/29 11:00:17;;;;;;;22.48;15.00;;;;;;;15.67;41.04;99633.63;4902375;28;96898;-84
2022/03/29 11:03:11;;;;;;;20.08;15.85;;;;;;;15.59;41.41;99627.06;4918115;28;97319;-85
2022/03/29 11:06:05;;;;;;;21.05;15.07;;;;;;;15.56;41.15;99621.97;4933041;28;98173;-85
2022/03/29 11:08:32;;;;;;;19.98;15.50;;;;;;;15.52;41.53;99617.81;4898413;28;101516;-85
2022/03/29 11:10:58;;;;;;;24.10;15.75;;;;;;;15.57;41.48;99618.38;4915118;28;97307;-84
2022/03/29 11:13:27;;;;;;;19.67;16.58;;;;;;;15.61;41.72;99622.50;4917755;28;97447;-84
2022/03/29 11:15:53;;;;;;;20.02;15.27;;;;;;;15.37;41.34;99584.47;4914906;28;101873;-84
2022/03/29 11:18:31;;;;;;;18.63;14.75;;;;;;;15.59;41.19;99626.19;4919983;28;101451;-83
2022/03/29 11:21:02;;;;;;;22.98;15.50;;;;;;;15.45;41.38;99608.59;4911316;28;97205;-84
2022/03/29 11:23:32;;;;;;;;;;;;;;;15.43;41.57;99615.78;4890971;28;97365;-83
2022/03/29 11:26:04;;;;;;;20.27;14.85;;;;;;;15.52;41.60;99609.88;4905100;28;101481;-83
2022/03/29 11:28:31;;;;;;;16.88;14.52;;;;;;;15.51;41.53;99602.06;4916023;28;101340;-83
2022/03/29 11:30:57;;;;;;;16.15;13.32;;;;;;;15.43;41.34;99593.78;4915383;28;97640;-83